createdAt,value
2019-06-08T00:01:37.719Z,91.00
2019-06-08T00:04:18.606Z,91.20
2019-06-08T00:06:49.896Z,91.00
2019-06-08T00:09:22.558Z,91.00
2019-06-08T00:11:54.145Z,91.00
2019-06-08T00:14:29.127Z,91.20
2019-06-08T00:17:00.303Z,91.30
2019-06-08T00:19:33.421Z,91.20
2019-06-08T00:22:04.822Z,91.30
2019-06-08T00:24:36.488Z,91.30
2019-06-08T00:27:08.087Z,91.30
2019-06-08T00:29:39.376Z,91.10
2019-06-08T00:32:10.637Z,91.30
2019-06-08T00:34:42.037Z,91.80
2019-06-08T00:37:14.546Z,91.60
2019-06-08T00:39:46.665Z,92.00
2019-06-08T00:42:19.170Z,92.40
2019-06-08T00:44:50.678Z,93.00
2019-06-08T00:47:24.707Z,93.50
2019-06-08T00:49:56.198Z,93.90
2019-06-08T00:52:27.391Z,93.80
2019-06-08T00:54:58.694Z,93.90
2019-06-08T00:57:30.249Z,94.00
2019-06-08T01:00:09.717Z,94.00
2019-06-08T01:02:35.996Z,93.90
2019-06-08T01:05:08.191Z,93.80
2019-06-08T01:07:39.585Z,93.70
2019-06-08T01:10:11.903Z,93.90
2019-06-08T01:12:43.169Z,93.80
2019-06-08T01:15:15.343Z,94.00
2019-06-08T01:18:01.553Z,94.10
2019-06-08T01:20:21.552Z,94.40
2019-06-08T01:22:53.676Z,94.70
2019-06-08T01:25:25.801Z,94.90
2019-06-08T01:27:57.108Z,95.10
2019-06-08T01:30:30.420Z,95.40
2019-06-08T01:33:01.800Z,95.60
2019-06-08T01:35:33.130Z,95.70
2019-06-08T01:38:04.465Z,95.90
2019-06-08T01:40:35.704Z,95.90
2019-06-08T01:43:07.275Z,96.10
2019-06-08T01:45:38.575Z,96.20
2019-06-08T01:48:19.936Z,96.20
2019-06-08T01:50:42.834Z,96.30
2019-06-08T01:53:14.050Z,96.40
2019-06-08T01:55:45.285Z,96.60
2019-06-08T01:58:16.525Z,96.60
2019-06-08T02:00:48.083Z,96.20
2019-06-08T02:03:19.409Z,95.80
2019-06-08T02:05:50.719Z,95.40
2019-06-08T02:08:21.931Z,95.40
2019-06-08T02:10:53.206Z,95.60
2019-06-08T02:13:24.992Z,95.60
2019-06-08T02:15:57.219Z,95.50
2019-06-08T02:18:41.559Z,95.40
2019-06-08T02:21:03.250Z,95.50
2019-06-08T02:23:35.155Z,95.60
2019-06-08T02:26:07.385Z,95.30
2019-06-08T02:28:38.578Z,95.00
2019-06-08T02:31:10.655Z,94.80
2019-06-08T02:33:41.918Z,95.00
2019-06-08T02:36:13.167Z,95.10
2019-06-08T02:38:44.445Z,95.40
2019-06-08T02:41:15.900Z,95.60
2019-06-08T02:43:47.341Z,95.70
2019-06-08T02:46:18.563Z,95.60
2019-06-08T02:49:03.512Z,95.80
2019-06-08T02:51:23.660Z,96.00
2019-06-08T02:53:55.059Z,96.00
2019-06-08T02:56:29.839Z,96.30
2019-06-08T02:59:04.185Z,96.30
2019-06-08T03:01:38.256Z,96.60
2019-06-08T03:04:09.182Z,96.50
2019-06-08T03:06:43.999Z,96.10
2019-06-08T03:09:16.726Z,95.60
2019-06-08T03:11:50.652Z,95.10
2019-06-08T03:14:24.851Z,94.80
2019-06-08T03:16:56.659Z,94.60
2019-06-08T03:19:27.881Z,94.70
2019-06-08T03:21:59.401Z,95.20
2019-06-08T03:24:32.489Z,95.00
2019-06-08T03:27:03.726Z,94.70
2019-06-08T03:29:37.074Z,94.50
2019-06-08T03:32:07.928Z,94.60
2019-06-08T03:34:46.820Z,95.00
2019-06-08T03:37:12.158Z,95.20
2019-06-08T03:39:45.166Z,95.60
2019-06-08T03:42:17.025Z,96.10
2019-06-08T03:44:48.330Z,96.30
2019-06-08T03:47:19.643Z,96.10
2019-06-08T03:49:56.668Z,96.10
2019-06-08T03:52:23.881Z,96.40
2019-06-08T03:54:55.073Z,96.70
2019-06-08T03:57:26.384Z,96.80
2019-06-08T03:59:57.652Z,96.40
2019-06-08T04:02:28.910Z,96.20
2019-06-08T04:05:00.162Z,95.80
2019-06-08T04:07:31.575Z,95.50
2019-06-08T04:10:02.994Z,95.40
2019-06-08T04:12:34.819Z,95.40
2019-06-08T04:15:07.698Z,95.50
2019-06-08T04:17:39.777Z,95.70
2019-06-08T04:20:12.425Z,95.70
2019-06-08T04:22:47.225Z,95.90
2019-06-08T04:25:20.580Z,96.00
2019-06-08T04:27:52.004Z,96.10
2019-06-08T04:30:27.223Z,96.30
2019-06-08T04:32:58.925Z,95.90
2019-06-08T04:35:30.165Z,95.70
2019-06-08T04:38:01.776Z,95.40
2019-06-08T04:40:33.051Z,95.40
2019-06-08T04:43:04.495Z,94.60
2019-06-08T04:45:35.819Z,94.50
2019-06-08T04:48:09.706Z,94.50
2019-06-08T04:50:40.973Z,95.00
2019-06-08T04:53:12.777Z,93.80
2019-06-08T04:55:46.509Z,93.70
2019-06-08T04:58:18.345Z,93.10
2019-06-08T05:00:50.876Z,93.10
2019-06-08T05:03:22.475Z,92.00
2019-06-08T05:05:53.791Z,92.20
2019-06-08T05:08:25.252Z,91.00
2019-06-08T05:10:56.483Z,92.10
2019-06-08T05:13:27.824Z,94.20
2019-06-08T05:15:59.014Z,92.80
2019-06-08T05:18:30.867Z,95.40
2019-06-08T05:21:02.705Z,96.10
2019-06-08T05:23:33.987Z,97.20
2019-06-08T05:26:05.902Z,96.90
2019-06-08T05:28:37.237Z,95.40
2019-06-08T05:31:09.006Z,94.10
2019-06-08T05:33:43.339Z,93.40
2019-06-08T05:36:15.621Z,93.50
2019-06-08T05:38:47.661Z,91.00
2019-06-08T05:41:18.912Z,91.30
2019-06-08T05:43:50.338Z,93.40
2019-06-08T05:46:21.698Z,92.30
2019-06-08T05:48:53.672Z,91.90
2019-06-08T05:51:25.240Z,93.10
2019-06-08T05:53:57.200Z,91.50
2019-06-08T05:56:30.054Z,91.70
2019-06-08T05:59:01.946Z,86.50
2019-06-08T06:01:34.651Z,85.10
2019-06-08T06:04:07.827Z,84.60
2019-06-08T06:06:40.435Z,81.60
2019-06-08T06:09:12.565Z,88.00
2019-06-08T06:11:44.776Z,91.10
2019-06-08T06:14:16.967Z,91.90
2019-06-08T06:20:22.441Z,89.20
2019-06-08T06:22:58.512Z,90.00
2019-06-08T06:25:29.579Z,90.70
2019-06-08T06:28:06.100Z,91.10
2019-06-08T06:30:36.977Z,90.70
2019-06-08T06:33:09.702Z,91.10
2019-06-08T06:35:50.068Z,90.70
2019-06-08T06:38:21.024Z,91.80
2019-06-08T06:40:54.487Z,86.70
2019-06-08T06:46:30.763Z,85.30
2019-06-08T06:49:02.801Z,85.30
2019-06-08T06:55:20.106Z,84.80
2019-06-08T06:57:53.837Z,85.60
2019-06-08T07:03:59.320Z,83.90
2019-06-08T07:06:31.357Z,83.10
2019-06-08T07:09:10.260Z,82.50
2019-06-08T07:11:42.276Z,79.60
2019-06-08T07:14:17.246Z,83.90
2019-06-08T07:16:49.879Z,81.60
2019-06-08T07:22:50.213Z,82.00
2019-06-08T07:28:10.167Z,80.70
2019-06-08T07:30:47.712Z,81.40
2019-06-08T07:33:21.363Z,81.00
2019-06-08T07:36:01.048Z,79.90
2019-06-08T07:38:35.060Z,81.20
2019-06-08T07:44:18.980Z,85.00
2019-06-08T07:46:53.749Z,83.70
2019-06-08T07:49:25.799Z,84.50
2019-06-08T07:52:08.309Z,85.40
2019-06-08T07:54:31.350Z,78.80
2019-06-08T07:57:03.132Z,78.80
2019-06-08T07:59:34.962Z,78.10
2019-06-08T08:02:07.108Z,79.20
2019-06-08T08:04:39.167Z,82.50
2019-06-08T08:07:11.206Z,83.70
2019-06-08T08:09:43.179Z,84.40
2019-06-08T08:12:15.124Z,86.20
2019-06-08T08:14:47.101Z,85.10
2019-06-08T08:17:18.925Z,83.40
2019-06-08T08:19:55.071Z,84.30
2019-06-08T08:22:29.466Z,85.50
2019-06-08T08:25:04.595Z,86.40
2019-06-08T08:27:34.069Z,86.20
2019-06-08T08:30:09.332Z,86.60
2019-06-08T08:32:41.167Z,85.00
2019-06-08T08:35:14.086Z,87.90
2019-06-08T08:37:47.411Z,84.80
2019-06-08T08:40:19.599Z,84.70
2019-06-08T08:42:52.366Z,87.20
2019-06-08T08:45:27.484Z,86.60
2019-06-08T08:48:14.870Z,83.90
2019-06-08T08:50:32.599Z,87.00
2019-06-08T08:53:04.646Z,82.90
2019-06-08T08:55:37.968Z,85.60
2019-06-08T08:58:09.987Z,88.40
2019-06-08T09:00:41.890Z,87.20
2019-06-08T09:03:27.868Z,85.70
2019-06-08T09:05:48.270Z,86.90
2019-06-08T09:08:23.167Z,86.90
2019-06-08T09:10:55.358Z,86.80
2019-06-08T09:13:28.239Z,86.20
2019-06-08T09:16:03.934Z,84.20
2019-06-08T09:18:37.438Z,86.40
2019-06-08T09:21:11.088Z,86.50
2019-06-08T09:23:42.943Z,87.30
2019-06-08T09:26:17.602Z,83.10
2019-06-08T09:28:49.438Z,84.10
2019-06-08T09:31:21.356Z,79.70
2019-06-08T09:34:02.576Z,84.10
2019-06-08T09:36:28.818Z,83.90
2019-06-08T09:39:04.456Z,84.30
2019-06-08T09:41:38.067Z,83.10
2019-06-08T09:44:12.129Z,86.40
2019-06-08T09:46:44.283Z,84.50
2019-06-08T09:49:18.560Z,84.60
2019-06-08T09:51:50.217Z,86.00
2019-06-08T09:54:22.035Z,85.30
2019-06-08T09:56:54.053Z,85.40
2019-06-08T09:59:28.426Z,85.80
2019-06-08T10:02:05.622Z,82.90
2019-06-08T10:04:33.379Z,86.60
2019-06-08T10:07:09.694Z,87.50
2019-06-08T10:09:43.246Z,88.20
2019-06-08T10:12:14.124Z,88.00
2019-06-08T10:14:48.776Z,89.10
2019-06-08T10:17:21.076Z,89.70
2019-06-08T10:19:54.516Z,87.10
2019-06-08T10:22:28.295Z,86.70
2019-06-08T10:25:03.727Z,88.10
2019-06-08T10:27:33.620Z,89.20
2019-06-08T10:30:10.574Z,85.30
2019-06-08T10:32:42.439Z,86.40
2019-06-08T10:35:14.773Z,85.00
2019-06-08T10:37:47.846Z,85.00
2019-06-08T10:40:22.429Z,87.90
2019-06-08T10:42:54.304Z,87.60
2019-06-08T10:45:28.439Z,87.50
2019-06-08T10:48:01.499Z,88.30
2019-06-08T10:50:33.415Z,90.10
2019-06-08T10:53:10.885Z,90.20
2019-06-08T10:55:42.298Z,89.30
2019-06-08T10:58:14.252Z,85.80
2019-06-08T11:00:48.056Z,83.70
2019-06-08T11:03:19.690Z,87.50
2019-06-08T11:05:51.773Z,88.30
2019-06-08T11:08:24.418Z,87.10
2019-06-08T11:10:57.914Z,83.60
2019-06-08T11:13:30.731Z,84.80
2019-06-08T11:16:04.421Z,80.20
2019-06-08T11:18:36.827Z,84.70
2019-06-08T11:21:12.578Z,83.30
2019-06-08T11:23:42.773Z,79.90
2019-06-08T11:26:20.879Z,77.80
2019-06-08T11:28:51.166Z,80.40
2019-06-08T11:31:23.536Z,80.10
2019-06-08T11:33:58.483Z,82.00
2019-06-08T11:36:29.638Z,81.50
2019-06-08T11:39:02.544Z,83.60
2019-06-08T11:41:36.103Z,83.20
2019-06-08T11:44:13.634Z,83.20
2019-06-08T11:46:44.442Z,84.00
2019-06-08T11:49:18.471Z,86.00
2019-06-08T11:51:49.019Z,84.20
2019-06-08T11:54:32.989Z,85.70
2019-06-08T11:57:00.684Z,88.40
2019-06-08T11:59:34.395Z,84.10
2019-06-08T12:02:09.034Z,83.70
2019-06-08T12:04:39.990Z,82.00
2019-06-08T12:07:13.705Z,83.70
2019-06-08T12:09:49.919Z,82.50
2019-06-08T12:12:21.397Z,83.50
2019-06-08T12:14:54.455Z,85.10
2019-06-08T12:17:28.247Z,81.40
2019-06-08T12:20:00.445Z,83.90
2019-06-08T12:22:47.839Z,82.10
2019-06-08T12:25:20.388Z,82.90
2019-06-08T12:27:52.866Z,82.90
2019-06-08T12:30:26.247Z,81.60
2019-06-08T12:32:59.730Z,81.40
2019-06-08T12:35:31.664Z,82.00
2019-06-08T12:38:03.776Z,81.00
2019-06-08T12:40:38.321Z,84.30
2019-06-08T12:43:11.725Z,82.30
2019-06-08T12:45:43.583Z,80.00
2019-06-08T12:48:19.561Z,83.50
2019-06-08T12:50:49.222Z,82.40
2019-06-08T12:53:22.994Z,81.80
2019-06-08T12:55:54.759Z,82.10
2019-06-08T12:58:28.212Z,81.40
2019-06-08T13:01:01.584Z,79.10
2019-06-08T13:03:33.608Z,83.10
2019-06-08T13:06:08.841Z,82.20
2019-06-08T13:08:39.599Z,80.80
2019-06-08T13:11:16.493Z,83.50
2019-06-08T13:13:49.041Z,82.00
2019-06-08T13:16:24.213Z,83.20
2019-06-08T13:18:54.806Z,83.00
2019-06-08T13:21:34.681Z,81.90
2019-06-08T13:24:00.545Z,88.30
2019-06-08T13:26:32.708Z,84.80
2019-06-08T13:29:04.816Z,88.30
2019-06-08T13:31:38.316Z,85.00
2019-06-08T13:34:13.014Z,83.40
2019-06-08T13:36:44.363Z,83.10
2019-06-08T13:39:19.570Z,83.40
2019-06-08T13:41:52.490Z,86.20
2019-06-08T13:44:24.442Z,85.90
2019-06-08T13:46:57.782Z,85.20
2019-06-08T13:49:30.933Z,83.50
2019-06-08T13:52:03.062Z,84.10
2019-06-08T13:54:35.051Z,85.10
2019-06-08T13:57:08.500Z,85.00
2019-06-08T13:59:40.524Z,83.20
2019-06-08T14:02:13.540Z,84.60
2019-06-08T14:04:46.776Z,83.30
2019-06-08T14:07:24.512Z,81.20
2019-06-08T14:09:52.864Z,82.10
2019-06-08T14:12:25.791Z,82.50
2019-06-08T14:14:58.568Z,83.70
2019-06-08T14:17:32.522Z,79.90
2019-06-08T14:20:08.058Z,80.70
2019-06-08T14:22:40.261Z,80.60
2019-06-08T14:25:12.368Z,83.80
2019-06-08T14:27:44.199Z,82.00
2019-06-08T14:30:18.221Z,80.10
2019-06-08T14:32:49.617Z,82.00
2019-06-08T14:35:23.788Z,82.00
2019-06-08T14:37:57.799Z,83.20
2019-06-08T14:40:32.671Z,83.60
2019-06-08T14:43:02.485Z,82.00
2019-06-08T14:45:34.373Z,81.20
2019-06-08T14:48:07.406Z,84.40
2019-06-08T14:50:41.048Z,85.60
2019-06-08T14:53:13.020Z,86.40
2019-06-08T14:55:44.922Z,83.10
2019-06-08T14:58:19.179Z,84.80
2019-06-08T15:00:50.609Z,82.90
2019-06-08T15:03:23.119Z,84.90
2019-06-08T15:05:54.936Z,85.20
2019-06-08T15:08:28.618Z,86.60
2019-06-08T15:11:00.317Z,84.10
2019-06-08T15:13:32.105Z,85.30
2019-06-08T15:16:04.008Z,85.70
2019-06-08T15:18:38.533Z,86.10
2019-06-08T15:21:11.974Z,86.70
2019-06-08T15:23:44.731Z,90.30
2019-06-08T15:26:23.999Z,87.80
2019-06-08T15:28:50.567Z,89.70
2019-06-08T15:31:23.061Z,89.90
2019-06-08T15:33:55.039Z,90.90
2019-06-08T15:36:29.517Z,88.80
2019-06-08T15:39:00.401Z,88.40
2019-06-08T15:41:33.852Z,89.10
2019-06-08T15:44:05.781Z,88.90
2019-06-08T15:46:37.935Z,87.80
2019-06-08T15:49:11.399Z,89.00
2019-06-08T15:51:43.339Z,90.50
2019-06-08T15:54:15.167Z,90.00
2019-06-08T15:56:51.356Z,89.80
2019-06-08T15:59:20.608Z,90.10
2019-06-08T16:01:53.744Z,89.60
2019-06-08T16:04:25.792Z,90.00
2019-06-08T16:06:57.687Z,90.10
2019-06-08T16:09:29.976Z,90.20
2019-06-08T16:12:01.866Z,90.70
2019-06-08T16:14:34.925Z,89.10
2019-06-08T16:17:07.038Z,90.10
2019-06-08T16:19:39.094Z,87.30
2019-06-08T16:22:11.043Z,89.40
2019-06-08T16:24:42.891Z,90.10
2019-06-08T16:27:14.882Z,89.60
2019-06-08T16:29:46.762Z,90.40
2019-06-08T16:32:18.590Z,90.30
2019-06-08T16:34:50.546Z,89.50
2019-06-08T16:37:22.452Z,88.80
2019-06-08T16:39:54.564Z,89.20
2019-06-08T16:42:27.791Z,89.30
2019-06-08T16:44:59.667Z,89.40
2019-06-08T16:47:31.492Z,89.80
2019-06-08T16:50:03.835Z,90.10
2019-06-08T16:52:36.683Z,90.00
2019-06-08T16:55:08.915Z,90.40
2019-06-08T16:57:41.277Z,90.40
2019-06-08T17:00:31.399Z,90.30
2019-06-08T17:02:47.555Z,90.50
2019-06-08T17:05:21.019Z,90.30
2019-06-08T17:07:55.939Z,90.60
2019-06-08T17:10:27.904Z,90.70
2019-06-08T17:13:00.107Z,91.00
2019-06-08T17:15:32.063Z,91.20
2019-06-08T17:18:04.269Z,91.50
2019-06-08T17:20:36.294Z,92.20
2019-06-08T17:23:08.426Z,92.90
2019-06-08T17:25:41.543Z,93.50
2019-06-08T17:28:13.401Z,94.10
2019-06-08T17:30:46.653Z,94.70
2019-06-08T17:33:18.937Z,95.10
2019-06-08T17:35:50.826Z,95.50
2019-06-08T17:38:22.847Z,96.00
2019-06-08T17:40:54.724Z,96.60
2019-06-08T17:43:26.617Z,96.30
2019-06-08T17:45:58.916Z,96.40
2019-06-08T17:48:30.790Z,96.30
2019-06-08T17:51:02.826Z,96.00
2019-06-08T17:53:35.163Z,96.00
2019-06-08T17:56:07.726Z,96.10
2019-06-08T17:58:39.691Z,96.50
2019-06-08T18:01:11.835Z,96.80
2019-06-08T18:03:44.730Z,97.20
2019-06-08T18:06:17.994Z,97.20
2019-06-08T18:08:49.833Z,97.50
2019-06-08T18:11:21.912Z,97.60
2019-06-08T18:13:54.770Z,97.40
2019-06-08T18:16:27.853Z,97.60
2019-06-08T18:18:59.997Z,97.60
2019-06-08T18:28:46.196Z,98.10
2019-06-08T18:34:53.681Z,98.60
2019-06-08T18:37:25.181Z,98.70
2019-06-08T18:39:57.858Z,98.70
2019-06-08T18:42:29.562Z,98.60
2019-06-08T18:45:02.513Z,98.90
2019-06-08T18:47:40.327Z,98.80
2019-06-08T18:50:14.000Z,98.70
2019-06-08T18:52:47.283Z,98.30
2019-06-08T18:55:23.420Z,98.50
2019-06-08T18:57:52.069Z,98.60
2019-06-08T19:00:30.648Z,98.20
2019-06-08T19:05:52.151Z,98.40
2019-06-08T19:08:24.509Z,98.60
2019-06-08T19:10:58.171Z,99.00
2019-06-08T19:13:30.476Z,99.20
2019-06-08T19:16:02.774Z,99.80
2019-06-08T19:18:34.207Z,99.90
2019-06-08T19:21:07.769Z,99.90
2019-06-08T19:23:41.847Z,99.90
2019-06-08T19:26:12.003Z,99.90
2019-06-08T19:28:47.811Z,99.90
2019-06-08T19:31:23.598Z,99.90
2019-06-08T19:33:53.653Z,99.90
2019-06-08T19:36:28.568Z,99.90
2019-06-08T19:39:07.010Z,99.90
2019-06-08T19:41:39.419Z,99.90
2019-06-08T19:44:13.398Z,99.90
2019-06-08T19:46:47.538Z,99.90
2019-06-08T19:49:17.797Z,99.40
2019-06-08T19:51:53.461Z,99.90
2019-06-08T19:54:23.667Z,99.90
2019-06-08T19:56:57.249Z,99.90
2019-06-08T19:59:28.599Z,99.90
2019-06-08T20:02:00.064Z,99.90
2019-06-08T20:04:31.651Z,99.90
2019-06-08T20:07:03.578Z,99.90
2019-06-08T20:09:37.623Z,99.90
2019-06-08T20:12:08.992Z,99.90
2019-06-08T20:14:41.314Z,99.90
2019-06-08T20:17:13.574Z,99.90
2019-06-08T20:19:48.044Z,99.90
2019-06-08T20:22:19.276Z,99.90
2019-06-08T20:24:55.325Z,99.90
2019-06-08T20:27:24.854Z,99.90
2019-06-08T20:29:58.208Z,99.90
2019-06-08T20:32:31.295Z,99.90
2019-06-08T20:35:03.283Z,99.90
2019-06-08T20:37:37.672Z,99.90
2019-06-08T20:40:14.182Z,99.90
2019-06-08T20:42:49.074Z,99.90
2019-06-08T20:45:19.684Z,99.90
2019-06-08T20:47:52.687Z,99.90
2019-06-08T20:50:27.129Z,99.90
2019-06-08T20:52:58.840Z,99.90
2019-06-08T20:55:30.159Z,99.90
2019-06-08T20:58:02.096Z,99.90
2019-06-08T21:00:33.416Z,99.90
2019-06-08T21:03:05.220Z,99.90
2019-06-08T21:05:37.075Z,99.90
2019-06-08T21:08:11.516Z,99.90
2019-06-08T21:10:46.040Z,99.90
2019-06-08T21:13:18.234Z,99.90
2019-06-08T21:15:53.822Z,99.90
2019-06-08T21:18:22.528Z,99.90
2019-06-08T21:20:55.856Z,99.90
2019-06-08T21:23:31.895Z,99.90
2019-06-08T21:26:03.337Z,99.90
2019-06-08T21:28:35.208Z,99.90
2019-06-08T21:31:08.492Z,99.90
2019-06-08T21:33:39.833Z,99.90
2019-06-08T21:36:11.773Z,99.90
2019-06-08T21:38:43.563Z,99.90
2019-06-08T21:41:17.194Z,99.90
2019-06-08T21:43:53.075Z,99.90
2019-06-08T21:46:27.531Z,99.90
2019-06-08T21:49:08.839Z,99.90
2019-06-08T21:51:51.491Z,99.90
2019-06-08T21:54:30.199Z,99.90
2019-06-08T21:57:06.682Z,99.90
2019-06-08T21:59:49.925Z,99.90
2019-06-08T22:02:27.105Z,99.90
2019-06-08T22:05:04.653Z,99.90
2019-06-08T22:07:42.514Z,99.90
2019-06-08T22:10:19.783Z,99.90
2019-06-08T22:12:53.539Z,99.90
2019-06-08T22:15:27.118Z,99.90
2019-06-08T22:18:00.156Z,99.90
2019-06-08T22:20:38.347Z,99.90
2019-06-08T22:23:10.271Z,99.90
2019-06-08T22:25:42.022Z,99.90
2019-06-08T22:28:17.585Z,99.90
2019-06-08T22:30:48.527Z,99.90
2019-06-08T22:33:22.630Z,99.90
2019-06-08T22:35:54.197Z,99.90
2019-06-08T22:38:25.638Z,99.90
2019-06-08T22:40:57.648Z,99.90
2019-06-08T22:43:31.903Z,99.90
2019-06-08T22:46:08.062Z,99.90
2019-06-08T22:48:38.951Z,99.90
2019-06-08T22:51:10.151Z,99.90
2019-06-08T22:53:41.419Z,99.90
2019-06-08T22:56:18.316Z,99.90
2019-06-08T22:58:49.828Z,99.90
2019-06-08T23:01:21.342Z,99.90
2019-06-08T23:03:53.664Z,99.90
2019-06-08T23:06:28.139Z,99.90
2019-06-08T23:09:01.456Z,99.90
2019-06-08T23:11:33.750Z,99.90
2019-06-08T23:14:10.351Z,99.90
2019-06-08T23:16:39.716Z,99.90
2019-06-08T23:19:12.870Z,99.90
2019-06-08T23:21:47.501Z,99.90
2019-06-08T23:24:19.205Z,99.90
2019-06-08T23:26:52.306Z,99.90
2019-06-08T23:29:23.649Z,99.90
2019-06-08T23:31:54.894Z,99.90
2019-06-08T23:34:27.661Z,99.90
2019-06-08T23:37:05.852Z,99.90
2019-06-08T23:39:37.398Z,99.90
2019-06-08T23:42:08.209Z,99.90
2019-06-08T23:44:41.881Z,99.90
2019-06-08T23:47:17.911Z,99.90
2019-06-08T23:49:50.881Z,99.90
2019-06-08T23:52:22.479Z,99.90
2019-06-08T23:54:53.956Z,99.90
2019-06-08T23:57:27.178Z,99.90
